sensor_id;sensor_type;location;lat;lon;timestamp;temperature;humidity
18777;DHT22;9517;51.174;4.160;2023-07-30T00:00:56;16.20;99.90
18777;DHT22;9517;51.174;4.160;2023-07-30T00:03:23;16.20;99.90
18777;DHT22;9517;51.174;4.160;2023-07-30T00:05:53;16.20;99.90
18777;DHT22;9517;51.174;4.160;2023-07-30T00:08:21;16.20;99.90
18777;DHT22;9517;51.174;4.160;2023-07-30T00:10:48;16.30;99.90
18777;DHT22;9517;51.174;4.160;2023-07-30T00:13:16;16.30;99.90
18777;DHT22;9517;51.174;4.160;2023-07-30T00:15:45;16.20;99.90
18777;DHT22;9517;51.174;4.160;2023-07-30T00:18:13;16.20;99.90
18777;DHT22;9517;51.174;4.160;2023-07-30T00:20:40;16.20;99.90
18777;DHT22;9517;51.174;4.160;2023-07-30T00:23:07;16.20;99.90
18777;DHT22;9517;51.174;4.160;2023-07-30T00:25:34;16.20;99.90
18777;DHT22;9517;51.174;4.160;2023-07-30T00:28:01;16.20;99.90
18777;DHT22;9517;51.174;4.160;2023-07-30T00:30:30;16.10;99.90
18777;DHT22;9517;51.174;4.160;2023-07-30T00:32:57;16.00;99.90
18777;DHT22;9517;51.174;4.160;2023-07-30T00:35:24;16.00;99.90
18777;DHT22;9517;51.174;4.160;2023-07-30T00:37:51;16.10;99.90
18777;DHT22;9517;51.174;4.160;2023-07-30T00:40:18;16.10;99.90
18777;DHT22;9517;51.174;4.160;2023-07-30T00:42:45;16.10;99.90
18777;DHT22;9517;51.174;4.160;2023-07-30T00:45:12;16.10;99.90
18777;DHT22;9517;51.174;4.160;2023-07-30T00:47:41;16.10;99.90
18777;DHT22;9517;51.174;4.160;2023-07-30T00:50:08;16.00;99.90
18777;DHT22;9517;51.174;4.160;2023-07-30T00:52:37;16.00;99.90
18777;DHT22;9517;51.174;4.160;2023-07-30T00:55:07;16.00;99.90
18777;DHT22;9517;51.174;4.160;2023-07-30T00:57:35;16.10;99.90
18777;DHT22;9517;51.174;4.160;2023-07-30T01:00:03;16.00;99.90
18777;DHT22;9517;51.174;4.160;2023-07-30T01:02:33;16.00;99.90
18777;DHT22;9517;51.174;4.160;2023-07-30T01:05:02;15.90;99.90
18777;DHT22;9517;51.174;4.160;2023-07-30T01:07:30;15.90;99.90
18777;DHT22;9517;51.174;4.160;2023-07-30T01:09:57;15.90;99.90
18777;DHT22;9517;51.174;4.160;2023-07-30T01:12:24;16.00;99.90
18777;DHT22;9517;51.174;4.160;2023-07-30T01:14:53;15.90;99.90
18777;DHT22;9517;51.174;4.160;2023-07-30T01:17:22;15.90;99.90
18777;DHT22;9517;51.174;4.160;2023-07-30T01:19:49;15.80;99.90
18777;DHT22;9517;51.174;4.160;2023-07-30T01:22:21;15.80;99.90
18777;DHT22;9517;51.174;4.160;2023-07-30T01:24:49;15.80;99.90
18777;DHT22;9517;51.174;4.160;2023-07-30T01:27:22;15.80;99.90
18777;DHT22;9517;51.174;4.160;2023-07-30T01:29:52;15.80;99.90
18777;DHT22;9517;51.174;4.160;2023-07-30T01:32:25;15.70;99.90
18777;DHT22;9517;51.174;4.160;2023-07-30T01:34:53;15.80;99.90
18777;DHT22;9517;51.174;4.160;2023-07-30T01:37:22;15.70;99.90
18777;DHT22;9517;51.174;4.160;2023-07-30T01:39:51;15.60;99.90
18777;DHT22;9517;51.174;4.160;2023-07-30T01:42:18;15.60;99.90
18777;DHT22;9517;51.174;4.160;2023-07-30T01:44:45;15.80;99.90
18777;DHT22;9517;51.174;4.160;2023-07-30T01:47:12;15.80;99.90
18777;DHT22;9517;51.174;4.160;2023-07-30T01:49:41;15.60;99.90
18777;DHT22;9517;51.174;4.160;2023-07-30T01:52:08;15.60;99.90
18777;DHT22;9517;51.174;4.160;2023-07-30T01:54:37;15.60;99.90
18777;DHT22;9517;51.174;4.160;2023-07-30T01:57:04;15.60;99.90
18777;DHT22;9517;51.174;4.160;2023-07-30T01:59:31;15.60;99.90
18777;DHT22;9517;51.174;4.160;2023-07-30T02:01:58;15.60;99.90
18777;DHT22;9517;51.174;4.160;2023-07-30T02:04:25;15.70;99.90
18777;DHT22;9517;51.174;4.160;2023-07-30T02:06:52;15.60;99.90
18777;DHT22;9517;51.174;4.160;2023-07-30T02:09:19;15.60;99.90
18777;DHT22;9517;51.174;4.160;2023-07-30T02:11:48;15.60;99.90
18777;DHT22;9517;51.174;4.160;2023-07-30T02:14:15;15.60;99.90
18777;DHT22;9517;51.174;4.160;2023-07-30T02:16:42;15.50;99.90
18777;DHT22;9517;51.174;4.160;2023-07-30T02:19:09;15.50;99.90
18777;DHT22;9517;51.174;4.160;2023-07-30T02:21:36;15.50;99.90
18777;DHT22;9517;51.174;4.160;2023-07-30T02:24:08;15.50;99.90
18777;DHT22;9517;51.174;4.160;2023-07-30T02:26:37;15.50;99.90
18777;DHT22;9517;51.174;4.160;2023-07-30T02:29:07;15.60;99.90
18777;DHT22;9517;51.174;4.160;2023-07-30T02:31:34;15.60;99.90
18777;DHT22;9517;51.174;4.160;2023-07-30T02:34:01;15.70;99.90
18777;DHT22;9517;51.174;4.160;2023-07-30T02:36:28;15.60;99.90
18777;DHT22;9517;51.174;4.160;2023-07-30T02:38:55;15.70;99.90
18777;DHT22;9517;51.174;4.160;2023-07-30T02:41:22;15.70;99.90
18777;DHT22;9517;51.174;4.160;2023-07-30T02:43:49;15.80;99.90
18777;DHT22;9517;51.174;4.160;2023-07-30T02:46:17;15.80;99.90
18777;DHT22;9517;51.174;4.160;2023-07-30T02:48:45;15.80;99.90
18777;DHT22;9517;51.174;4.160;2023-07-30T02:51:12;15.90;99.90
18777;DHT22;9517;51.174;4.160;2023-07-30T02:53:39;15.90;99.90
18777;DHT22;9517;51.174;4.160;2023-07-30T02:56:06;15.80;99.90
18777;DHT22;9517;51.174;4.160;2023-07-30T02:58:33;15.70;99.90
18777;DHT22;9517;51.174;4.160;2023-07-30T03:01:05;15.70;99.90
18777;DHT22;9517;51.174;4.160;2023-07-30T03:03:34;15.70;99.90
18777;DHT22;9517;51.174;4.160;2023-07-30T03:06:02;15.60;99.90
18777;DHT22;9517;51.174;4.160;2023-07-30T03:08:29;15.60;99.90
18777;DHT22;9517;51.174;4.160;2023-07-30T03:10:58;15.50;99.90
18777;DHT22;9517;51.174;4.160;2023-07-30T03:13:25;15.50;99.90
18777;DHT22;9517;51.174;4.160;2023-07-30T03:15:52;15.60;99.90
18777;DHT22;9517;51.174;4.160;2023-07-30T03:18:20;15.50;99.90
18777;DHT22;9517;51.174;4.160;2023-07-30T03:20:48;15.50;99.90
18777;DHT22;9517;51.174;4.160;2023-07-30T03:23:15;15.50;99.90
18777;DHT22;9517;51.174;4.160;2023-07-30T03:25:42;15.50;99.90
18777;DHT22;9517;51.174;4.160;2023-07-30T03:28:09;15.50;99.90
18777;DHT22;9517;51.174;4.160;2023-07-30T03:30:36;15.50;99.90
18777;DHT22;9517;51.174;4.160;2023-07-30T03:33:03;15.50;99.90
18777;DHT22;9517;51.174;4.160;2023-07-30T03:35:30;15.50;99.90
18777;DHT22;9517;51.174;4.160;2023-07-30T03:37:58;15.50;99.90
18777;DHT22;9517;51.174;4.160;2023-07-30T03:40:26;15.50;99.90
18777;DHT22;9517;51.174;4.160;2023-07-30T03:42:53;15.50;99.90
18777;DHT22;9517;51.174;4.160;2023-07-30T03:45:21;15.50;99.90
18777;DHT22;9517;51.174;4.160;2023-07-30T03:47:48;15.50;99.90
18777;DHT22;9517;51.174;4.160;2023-07-30T03:50:15;15.50;99.90
18777;DHT22;9517;51.174;4.160;2023-07-30T03:52:42;15.60;99.90
18777;DHT22;9517;51.174;4.160;2023-07-30T03:55:10;15.60;99.90
18777;DHT22;9517;51.174;4.160;2023-07-30T03:57:38;15.60;99.90
18777;DHT22;9517;51.174;4.160;2023-07-30T04:00:06;15.60;99.90
18777;DHT22;9517;51.174;4.160;2023-07-30T04:02:33;15.70;99.90
18777;DHT22;9517;51.174;4.160;2023-07-30T04:05:00;15.70;99.90
18777;DHT22;9517;51.174;4.160;2023-07-30T04:07:27;15.60;99.90
18777;DHT22;9517;51.174;4.160;2023-07-30T04:09:54;15.70;99.90
18777;DHT22;9517;51.174;4.160;2023-07-30T04:12:23;15.60;99.90
18777;DHT22;9517;51.174;4.160;2023-07-30T04:14:51;15.60;99.90
18777;DHT22;9517;51.174;4.160;2023-07-30T04:17:18;15.60;99.90
18777;DHT22;9517;51.174;4.160;2023-07-30T04:19:45;15.60;99.90
18777;DHT22;9517;51.174;4.160;2023-07-30T04:22:12;15.50;99.90
18777;DHT22;9517;51.174;4.160;2023-07-30T04:24:39;15.50;99.90
18777;DHT22;9517;51.174;4.160;2023-07-30T04:27:06;15.50;99.90
18777;DHT22;9517;51.174;4.160;2023-07-30T04:29:35;15.70;99.90
18777;DHT22;9517;51.174;4.160;2023-07-30T04:32:02;15.60;99.90
18777;DHT22;9517;51.174;4.160;2023-07-30T04:34:30;15.50;99.90
18777;DHT22;9517;51.174;4.160;2023-07-30T04:36:57;15.60;99.90
18777;DHT22;9517;51.174;4.160;2023-07-30T04:39:24;15.60;99.90
18777;DHT22;9517;51.174;4.160;2023-07-30T04:41:51;15.60;99.90
18777;DHT22;9517;51.174;4.160;2023-07-30T04:44:18;15.60;99.90
18777;DHT22;9517;51.174;4.160;2023-07-30T04:46:46;15.60;99.90
18777;DHT22;9517;51.174;4.160;2023-07-30T04:49:13;15.50;99.90
18777;DHT22;9517;51.174;4.160;2023-07-30T04:51:41;15.50;99.90
18777;DHT22;9517;51.174;4.160;2023-07-30T04:54:08;15.50;99.90
18777;DHT22;9517;51.174;4.160;2023-07-30T04:56:35;15.50;99.90
18777;DHT22;9517;51.174;4.160;2023-07-30T04:59:02;15.60;99.90
18777;DHT22;9517;51.174;4.160;2023-07-30T05:01:29;15.60;99.90
18777;DHT22;9517;51.174;4.160;2023-07-30T05:03:59;15.60;99.90
18777;DHT22;9517;51.174;4.160;2023-07-30T05:06:26;15.60;99.90
18777;DHT22;9517;51.174;4.160;2023-07-30T05:08:53;15.70;99.90
18777;DHT22;9517;51.174;4.160;2023-07-30T05:11:22;15.70;99.90
18777;DHT22;9517;51.174;4.160;2023-07-30T05:13:49;15.80;99.90
18777;DHT22;9517;51.174;4.160;2023-07-30T05:16:16;15.90;99.90
18777;DHT22;9517;51.174;4.160;2023-07-30T05:18:44;15.90;99.90
18777;DHT22;9517;51.174;4.160;2023-07-30T05:21:12;15.90;99.90
18777;DHT22;9517;51.174;4.160;2023-07-30T05:23:39;15.90;99.90
18777;DHT22;9517;51.174;4.160;2023-07-30T05:26:06;15.90;99.90
18777;DHT22;9517;51.174;4.160;2023-07-30T05:28:33;16.00;99.90
18777;DHT22;9517;51.174;4.160;2023-07-30T05:31:00;16.00;99.90
18777;DHT22;9517;51.174;4.160;2023-07-30T05:33:27;16.10;99.90
18777;DHT22;9517;51.174;4.160;2023-07-30T05:35:54;16.10;99.90
18777;DHT22;9517;51.174;4.160;2023-07-30T05:38:23;16.10;99.90
18777;DHT22;9517;51.174;4.160;2023-07-30T05:40:50;16.20;99.90
18777;DHT22;9517;51.174;4.160;2023-07-30T05:43:17;16.20;99.90
18777;DHT22;9517;51.174;4.160;2023-07-30T05:45:44;16.20;99.90
18777;DHT22;9517;51.174;4.160;2023-07-30T05:48:11;16.20;99.90
18777;DHT22;9517;51.174;4.160;2023-07-30T05:50:38;16.30;99.90
18777;DHT22;9517;51.174;4.160;2023-07-30T05:53:05;16.20;99.90
18777;DHT22;9517;51.174;4.160;2023-07-30T05:55:33;16.30;99.90
18777;DHT22;9517;51.174;4.160;2023-07-30T05:58:01;16.40;99.90
18777;DHT22;9517;51.174;4.160;2023-07-30T06:00:28;16.30;99.90
18777;DHT22;9517;51.174;4.160;2023-07-30T06:02:55;16.40;99.90
18777;DHT22;9517;51.174;4.160;2023-07-30T06:05:22;16.40;99.90
18777;DHT22;9517;51.174;4.160;2023-07-30T06:07:49;16.40;99.90
18777;DHT22;9517;51.174;4.160;2023-07-30T06:10:16;16.40;99.90
18777;DHT22;9517;51.174;4.160;2023-07-30T06:12:45;16.50;99.90
18777;DHT22;9517;51.174;4.160;2023-07-30T06:15:12;16.50;99.90
18777;DHT22;9517;51.174;4.160;2023-07-30T06:17:39;16.60;99.90
18777;DHT22;9517;51.174;4.160;2023-07-30T06:20:08;16.50;99.90
18777;DHT22;9517;51.174;4.160;2023-07-30T06:22:35;16.50;99.90
18777;DHT22;9517;51.174;4.160;2023-07-30T06:25:02;16.50;99.90
18777;DHT22;9517;51.174;4.160;2023-07-30T06:27:29;16.60;99.90
18777;DHT22;9517;51.174;4.160;2023-07-30T06:29:58;16.60;99.90
18777;DHT22;9517;51.174;4.160;2023-07-30T06:32:25;16.70;99.90
18777;DHT22;9517;51.174;4.160;2023-07-30T06:34:52;16.70;99.90
18777;DHT22;9517;51.174;4.160;2023-07-30T06:37:19;16.80;99.90
18777;DHT22;9517;51.174;4.160;2023-07-30T06:39:46;16.90;99.90
18777;DHT22;9517;51.174;4.160;2023-07-30T06:42:13;17.10;99.90
18777;DHT22;9517;51.174;4.160;2023-07-30T06:44:40;17.20;99.90
18777;DHT22;9517;51.174;4.160;2023-07-30T06:47:09;17.30;99.90
18777;DHT22;9517;51.174;4.160;2023-07-30T06:49:36;17.40;99.90
18777;DHT22;9517;51.174;4.160;2023-07-30T06:52:04;17.60;99.90
18777;DHT22;9517;51.174;4.160;2023-07-30T06:54:32;17.80;99.90
18777;DHT22;9517;51.174;4.160;2023-07-30T06:56:59;17.80;99.90
18777;DHT22;9517;51.174;4.160;2023-07-30T06:59:26;17.80;99.90
18777;DHT22;9517;51.174;4.160;2023-07-30T07:01:53;17.80;99.90
18777;DHT22;9517;51.174;4.160;2023-07-30T07:04:21;18.00;99.90
18777;DHT22;9517;51.174;4.160;2023-07-30T07:06:48;18.10;99.90
18777;DHT22;9517;51.174;4.160;2023-07-30T07:09:15;18.30;99.90
18777;DHT22;9517;51.174;4.160;2023-07-30T07:11:43;18.30;99.90
18777;DHT22;9517;51.174;4.160;2023-07-30T07:14:10;18.10;99.90
18777;DHT22;9517;51.174;4.160;2023-07-30T07:16:38;17.90;99.90
18777;DHT22;9517;51.174;4.160;2023-07-30T07:19:05;18.00;99.90
18777;DHT22;9517;51.174;4.160;2023-07-30T07:21:33;18.20;99.90
18777;DHT22;9517;51.174;4.160;2023-07-30T07:24:00;18.40;99.90
18777;DHT22;9517;51.174;4.160;2023-07-30T07:26:28;18.40;99.90
18777;DHT22;9517;51.174;4.160;2023-07-30T07:28:55;18.60;99.90
18777;DHT22;9517;51.174;4.160;2023-07-30T07:31:23;18.90;99.90
18777;DHT22;9517;51.174;4.160;2023-07-30T07:33:50;18.90;99.90
18777;DHT22;9517;51.174;4.160;2023-07-30T07:36:17;19.00;99.90
18777;DHT22;9517;51.174;4.160;2023-07-30T07:38:46;18.90;99.90
18777;DHT22;9517;51.174;4.160;2023-07-30T07:41:14;18.80;99.90
18777;DHT22;9517;51.174;4.160;2023-07-30T07:43:42;18.70;99.90
18777;DHT22;9517;51.174;4.160;2023-07-30T07:46:09;19.00;99.90
18777;DHT22;9517;51.174;4.160;2023-07-30T07:48:39;19.20;99.90
18777;DHT22;9517;51.174;4.160;2023-07-30T07:51:07;19.30;99.90
18777;DHT22;9517;51.174;4.160;2023-07-30T07:53:34;19.40;99.90
18777;DHT22;9517;51.174;4.160;2023-07-30T07:56:02;19.30;99.90
18777;DHT22;9517;51.174;4.160;2023-07-30T07:58:30;19.40;99.90
18777;DHT22;9517;51.174;4.160;2023-07-30T08:00:59;19.60;99.90
18777;DHT22;9517;51.174;4.160;2023-07-30T08:03:26;19.50;99.90
18777;DHT22;9517;51.174;4.160;2023-07-30T08:05:53;19.60;99.90
18777;DHT22;9517;51.174;4.160;2023-07-30T08:08:20;19.60;99.90
18777;DHT22;9517;51.174;4.160;2023-07-30T08:10:48;19.70;99.90
18777;DHT22;9517;51.174;4.160;2023-07-30T08:13:16;19.60;99.90
18777;DHT22;9517;51.174;4.160;2023-07-30T08:15:43;19.50;99.90
18777;DHT22;9517;51.174;4.160;2023-07-30T08:18:10;19.40;99.90
18777;DHT22;9517;51.174;4.160;2023-07-30T08:20:37;19.60;99.90
18777;DHT22;9517;51.174;4.160;2023-07-30T08:23:04;19.70;99.90
18777;DHT22;9517;51.174;4.160;2023-07-30T08:25:32;19.80;99.90
18777;DHT22;9517;51.174;4.160;2023-07-30T08:27:59;20.00;99.90
18777;DHT22;9517;51.174;4.160;2023-07-30T08:30:27;20.20;99.90
18777;DHT22;9517;51.174;4.160;2023-07-30T08:32:54;20.30;99.90
18777;DHT22;9517;51.174;4.160;2023-07-30T08:35:24;20.40;99.90
18777;DHT22;9517;51.174;4.160;2023-07-30T08:37:52;20.50;99.90
18777;DHT22;9517;51.174;4.160;2023-07-30T08:40:21;20.20;99.90
18777;DHT22;9517;51.174;4.160;2023-07-30T08:42:49;20.10;99.90
18777;DHT22;9517;51.174;4.160;2023-07-30T08:45:16;20.30;99.90
18777;DHT22;9517;51.174;4.160;2023-07-30T08:47:46;20.50;99.90
18777;DHT22;9517;51.174;4.160;2023-07-30T08:50:14;20.40;99.90
18777;DHT22;9517;51.174;4.160;2023-07-30T08:52:41;20.50;99.90
18777;DHT22;9517;51.174;4.160;2023-07-30T08:55:10;21.00;99.90
18777;DHT22;9517;51.174;4.160;2023-07-30T08:57:37;21.10;99.90
18777;DHT22;9517;51.174;4.160;2023-07-30T09:00:07;20.80;99.90
18777;DHT22;9517;51.174;4.160;2023-07-30T09:02:41;20.70;99.90
18777;DHT22;9517;51.174;4.160;2023-07-30T09:05:11;20.50;99.90
18777;DHT22;9517;51.174;4.160;2023-07-30T09:07:38;20.60;99.90
18777;DHT22;9517;51.174;4.160;2023-07-30T09:10:06;20.50;99.90
18777;DHT22;9517;51.174;4.160;2023-07-30T09:12:34;20.10;99.90
18777;DHT22;9517;51.174;4.160;2023-07-30T09:15:02;20.20;99.90
18777;DHT22;9517;51.174;4.160;2023-07-30T09:17:30;20.10;99.90
18777;DHT22;9517;51.174;4.160;2023-07-30T09:19:59;20.10;99.90
18777;DHT22;9517;51.174;4.160;2023-07-30T09:22:28;20.10;99.90
18777;DHT22;9517;51.174;4.160;2023-07-30T09:24:57;20.20;99.90
18777;DHT22;9517;51.174;4.160;2023-07-30T09:27:25;20.30;99.90
18777;DHT22;9517;51.174;4.160;2023-07-30T09:29:54;20.30;99.90
18777;DHT22;9517;51.174;4.160;2023-07-30T09:32:25;20.30;99.90
18777;DHT22;9517;51.174;4.160;2023-07-30T09:34:53;20.30;99.90
18777;DHT22;9517;51.174;4.160;2023-07-30T09:37:20;20.40;99.90
18777;DHT22;9517;51.174;4.160;2023-07-30T09:39:49;20.90;99.90
18777;DHT22;9517;51.174;4.160;2023-07-30T09:42:16;21.10;99.90
18777;DHT22;9517;51.174;4.160;2023-07-30T09:44:47;20.90;99.90
18777;DHT22;9517;51.174;4.160;2023-07-30T09:47:14;21.10;99.90
18777;DHT22;9517;51.174;4.160;2023-07-30T09:49:41;21.40;99.90
18777;DHT22;9517;51.174;4.160;2023-07-30T09:52:09;21.60;99.90
18777;DHT22;9517;51.174;4.160;2023-07-30T09:54:37;21.70;99.90
18777;DHT22;9517;51.174;4.160;2023-07-30T09:57:07;21.50;99.90
18777;DHT22;9517;51.174;4.160;2023-07-30T09:59:34;21.50;99.90
18777;DHT22;9517;51.174;4.160;2023-07-30T10:02:01;21.90;99.90
18777;DHT22;9517;51.174;4.160;2023-07-30T10:04:30;21.90;99.90
18777;DHT22;9517;51.174;4.160;2023-07-30T10:06:59;21.80;99.90
18777;DHT22;9517;51.174;4.160;2023-07-30T10:09:30;21.60;99.90
18777;DHT22;9517;51.174;4.160;2023-07-30T10:11:59;22.00;99.90
18777;DHT22;9517;51.174;4.160;2023-07-30T10:14:28;22.40;99.90
18777;DHT22;9517;51.174;4.160;2023-07-30T10:16:59;22.40;99.90
18777;DHT22;9517;51.174;4.160;2023-07-30T10:19:26;22.90;99.90
18777;DHT22;9517;51.174;4.160;2023-07-30T10:21:58;23.00;99.90
18777;DHT22;9517;51.174;4.160;2023-07-30T10:24:26;23.00;99.90
18777;DHT22;9517;51.174;4.160;2023-07-30T10:26:54;22.70;99.90
18777;DHT22;9517;51.174;4.160;2023-07-30T10:29:23;22.70;99.90
18777;DHT22;9517;51.174;4.160;2023-07-30T10:31:54;22.90;99.90
18777;DHT22;9517;51.174;4.160;2023-07-30T10:34:25;22.80;99.90
18777;DHT22;9517;51.174;4.160;2023-07-30T10:36:55;22.60;99.90
18777;DHT22;9517;51.174;4.160;2023-07-30T10:39:26;22.00;99.90
18777;DHT22;9517;51.174;4.160;2023-07-30T10:41:55;21.90;99.90
18777;DHT22;9517;51.174;4.160;2023-07-30T10:44:24;21.80;99.90
18777;DHT22;9517;51.174;4.160;2023-07-30T10:46:53;21.90;99.90
18777;DHT22;9517;51.174;4.160;2023-07-30T10:49:20;22.10;99.90
18777;DHT22;9517;51.174;4.160;2023-07-30T10:51:47;21.90;99.90
18777;DHT22;9517;51.174;4.160;2023-07-30T10:54:15;22.10;99.90
18777;DHT22;9517;51.174;4.160;2023-07-30T10:56:42;22.50;99.90
18777;DHT22;9517;51.174;4.160;2023-07-30T10:59:11;23.10;99.90
18777;DHT22;9517;51.174;4.160;2023-07-30T11:01:39;23.40;99.90
18777;DHT22;9517;51.174;4.160;2023-07-30T11:04:10;23.60;99.90
18777;DHT22;9517;51.174;4.160;2023-07-30T11:06:37;24.10;99.90
18777;DHT22;9517;51.174;4.160;2023-07-30T11:09:05;24.40;99.90
18777;DHT22;9517;51.174;4.160;2023-07-30T11:11:32;24.40;99.90
18777;DHT22;9517;51.174;4.160;2023-07-30T11:14:00;24.10;99.90
18777;DHT22;9517;51.174;4.160;2023-07-30T11:16:29;24.10;99.90
18777;DHT22;9517;51.174;4.160;2023-07-30T11:18:56;24.00;99.90
18777;DHT22;9517;51.174;4.160;2023-07-30T11:21:25;23.20;99.90
18777;DHT22;9517;51.174;4.160;2023-07-30T11:23:52;23.20;99.90
18777;DHT22;9517;51.174;4.160;2023-07-30T11:26:22;24.10;99.90
18777;DHT22;9517;51.174;4.160;2023-07-30T11:28:49;24.30;99.90
18777;DHT22;9517;51.174;4.160;2023-07-30T11:31:17;24.50;99.90
18777;DHT22;9517;51.174;4.160;2023-07-30T11:33:48;23.70;99.90
18777;DHT22;9517;51.174;4.160;2023-07-30T11:36:19;23.20;99.90
18777;DHT22;9517;51.174;4.160;2023-07-30T11:38:50;22.80;99.90
18777;DHT22;9517;51.174;4.160;2023-07-30T11:41:19;22.70;99.90
18777;DHT22;9517;51.174;4.160;2023-07-30T11:43:47;22.80;99.90
18777;DHT22;9517;51.174;4.160;2023-07-30T11:46:16;22.90;99.90
18777;DHT22;9517;51.174;4.160;2023-07-30T11:48:47;23.90;99.90
18777;DHT22;9517;51.174;4.160;2023-07-30T11:51:22;24.70;99.90
18777;DHT22;9517;51.174;4.160;2023-07-30T11:53:53;24.70;99.90
18777;DHT22;9517;51.174;4.160;2023-07-30T11:56:21;24.10;99.90
18777;DHT22;9517;51.174;4.160;2023-07-30T11:58:51;23.70;99.90
18777;DHT22;9517;51.174;4.160;2023-07-30T12:01:18;23.90;99.90
18777;DHT22;9517;51.174;4.160;2023-07-30T12:03:46;24.10;99.90
18777;DHT22;9517;51.174;4.160;2023-07-30T12:06:13;24.80;99.90
18777;DHT22;9517;51.174;4.160;2023-07-30T12:08:41;25.60;99.90
18777;DHT22;9517;51.174;4.160;2023-07-30T12:11:10;25.50;99.90
18777;DHT22;9517;51.174;4.160;2023-07-30T12:13:44;25.30;99.90
18777;DHT22;9517;51.174;4.160;2023-07-30T12:16:12;25.10;99.90
18777;DHT22;9517;51.174;4.160;2023-07-30T12:18:40;24.30;99.90
18777;DHT22;9517;51.174;4.160;2023-07-30T12:21:08;24.30;99.90
18777;DHT22;9517;51.174;4.160;2023-07-30T12:23:36;25.00;99.90
18777;DHT22;9517;51.174;4.160;2023-07-30T12:26:04;25.80;99.90
18777;DHT22;9517;51.174;4.160;2023-07-30T12:28:33;27.10;99.90
18777;DHT22;9517;51.174;4.160;2023-07-30T12:31:00;26.50;99.90
18777;DHT22;9517;51.174;4.160;2023-07-30T12:33:27;25.60;99.90
18777;DHT22;9517;51.174;4.160;2023-07-30T12:35:54;25.20;99.90
18777;DHT22;9517;51.174;4.160;2023-07-30T12:38:22;25.00;99.90
18777;DHT22;9517;51.174;4.160;2023-07-30T12:40:49;25.40;99.90
18777;DHT22;9517;51.174;4.160;2023-07-30T12:43:16;25.80;99.90
18777;DHT22;9517;51.174;4.160;2023-07-30T12:45:47;25.80;99.90
18777;DHT22;9517;51.174;4.160;2023-07-30T12:48:14;26.00;99.90
18777;DHT22;9517;51.174;4.160;2023-07-30T12:50:42;25.70;99.90
18777;DHT22;9517;51.174;4.160;2023-07-30T12:53:09;26.30;99.90
18777;DHT22;9517;51.174;4.160;2023-07-30T12:55:36;26.70;99.90
18777;DHT22;9517;51.174;4.160;2023-07-30T12:58:06;26.40;99.90
18777;DHT22;9517;51.174;4.160;2023-07-30T13:00:34;26.60;99.90
18777;DHT22;9517;51.174;4.160;2023-07-30T13:03:03;26.80;99.90
18777;DHT22;9517;51.174;4.160;2023-07-30T13:05:30;26.40;99.90
18777;DHT22;9517;51.174;4.160;2023-07-30T13:07:57;25.50;99.90
18777;DHT22;9517;51.174;4.160;2023-07-30T13:10:24;24.70;99.90
18777;DHT22;9517;51.174;4.160;2023-07-30T13:12:51;24.40;99.90
18777;DHT22;9517;51.174;4.160;2023-07-30T13:15:18;24.10;99.90
18777;DHT22;9517;51.174;4.160;2023-07-30T13:17:46;23.70;99.90
18777;DHT22;9517;51.174;4.160;2023-07-30T13:20:14;24.50;99.90
18777;DHT22;9517;51.174;4.160;2023-07-30T13:22:42;25.40;99.90
18777;DHT22;9517;51.174;4.160;2023-07-30T13:25:09;25.70;99.90
18777;DHT22;9517;51.174;4.160;2023-07-30T13:27:36;25.20;99.90
18777;DHT22;9517;51.174;4.160;2023-07-30T13:30:04;25.00;99.90
18777;DHT22;9517;51.174;4.160;2023-07-30T13:32:31;24.70;99.90
18777;DHT22;9517;51.174;4.160;2023-07-30T13:34:58;25.30;99.90
18777;DHT22;9517;51.174;4.160;2023-07-30T13:37:27;26.40;99.90
18777;DHT22;9517;51.174;4.160;2023-07-30T13:39:54;26.60;99.90
18777;DHT22;9517;51.174;4.160;2023-07-30T13:42:21;26.70;99.90
18777;DHT22;9517;51.174;4.160;2023-07-30T13:44:48;26.70;99.90
18777;DHT22;9517;51.174;4.160;2023-07-30T13:47:16;26.20;99.90
18777;DHT22;9517;51.174;4.160;2023-07-30T13:49:43;26.40;99.90
18777;DHT22;9517;51.174;4.160;2023-07-30T13:52:10;26.80;99.90
18777;DHT22;9517;51.174;4.160;2023-07-30T13:54:39;27.30;99.90
18777;DHT22;9517;51.174;4.160;2023-07-30T13:57:07;27.60;99.90
18777;DHT22;9517;51.174;4.160;2023-07-30T13:59:34;28.00;99.90
18777;DHT22;9517;51.174;4.160;2023-07-30T14:02:03;27.40;99.90
18777;DHT22;9517;51.174;4.160;2023-07-30T14:04:31;26.70;99.90
18777;DHT22;9517;51.174;4.160;2023-07-30T14:06:58;25.80;99.90
18777;DHT22;9517;51.174;4.160;2023-07-30T14:09:25;25.30;99.90
18777;DHT22;9517;51.174;4.160;2023-07-30T14:12:00;25.30;99.90
18777;DHT22;9517;51.174;4.160;2023-07-30T14:14:27;25.40;99.90
18777;DHT22;9517;51.174;4.160;2023-07-30T14:16:54;25.00;99.90
18777;DHT22;9517;51.174;4.160;2023-07-30T14:19:22;24.60;99.90
18777;DHT22;9517;51.174;4.160;2023-07-30T14:21:50;24.10;99.90
18777;DHT22;9517;51.174;4.160;2023-07-30T14:24:17;24.30;99.90
18777;DHT22;9517;51.174;4.160;2023-07-30T14:26:44;24.30;99.90
18777;DHT22;9517;51.174;4.160;2023-07-30T14:29:12;24.10;99.90
18777;DHT22;9517;51.174;4.160;2023-07-30T14:31:40;23.70;99.90
18777;DHT22;9517;51.174;4.160;2023-07-30T14:34:07;23.30;99.90
18777;DHT22;9517;51.174;4.160;2023-07-30T14:36:34;23.10;99.90
18777;DHT22;9517;51.174;4.160;2023-07-30T14:39:01;23.40;99.90
18777;DHT22;9517;51.174;4.160;2023-07-30T14:41:28;24.00;99.90
18777;DHT22;9517;51.174;4.160;2023-07-30T14:43:55;24.30;99.90
18777;DHT22;9517;51.174;4.160;2023-07-30T14:46:24;24.30;99.90
18777;DHT22;9517;51.174;4.160;2023-07-30T14:48:51;24.50;99.90
18777;DHT22;9517;51.174;4.160;2023-07-30T14:51:18;24.10;99.90
18777;DHT22;9517;51.174;4.160;2023-07-30T14:53:45;23.80;99.90
18777;DHT22;9517;51.174;4.160;2023-07-30T14:56:12;23.40;99.90
18777;DHT22;9517;51.174;4.160;2023-07-30T14:58:39;23.00;99.90
18777;DHT22;9517;51.174;4.160;2023-07-30T15:01:06;22.80;99.90
18777;DHT22;9517;51.174;4.160;2023-07-30T15:03:34;22.40;99.90
18777;DHT22;9517;51.174;4.160;2023-07-30T15:06:02;22.10;99.90
18777;DHT22;9517;51.174;4.160;2023-07-30T15:08:29;21.80;99.90
18777;DHT22;9517;51.174;4.160;2023-07-30T15:10:57;21.70;99.90
18777;DHT22;9517;51.174;4.160;2023-07-30T15:13:25;21.60;99.90
18777;DHT22;9517;51.174;4.160;2023-07-30T15:15:53;21.40;99.90
18777;DHT22;9517;51.174;4.160;2023-07-30T15:18:20;21.10;99.90
18777;DHT22;9517;51.174;4.160;2023-07-30T15:20:49;20.80;99.90
18777;DHT22;9517;51.174;4.160;2023-07-30T15:23:16;20.00;99.90
18777;DHT22;9517;51.174;4.160;2023-07-30T15:25:44;19.30;99.90
18777;DHT22;9517;51.174;4.160;2023-07-30T15:28:11;19.00;99.90
18777;DHT22;9517;51.174;4.160;2023-07-30T15:30:39;18.80;99.90
18777;DHT22;9517;51.174;4.160;2023-07-30T15:33:09;18.70;99.90
18777;DHT22;9517;51.174;4.160;2023-07-30T15:35:37;18.90;99.90
18777;DHT22;9517;51.174;4.160;2023-07-30T15:38:07;19.00;99.90
18777;DHT22;9517;51.174;4.160;2023-07-30T15:40:40;19.20;99.90
18777;DHT22;9517;51.174;4.160;2023-07-30T15:43:08;19.30;99.90
18777;DHT22;9517;51.174;4.160;2023-07-30T15:45:39;19.30;99.90
18777;DHT22;9517;51.174;4.160;2023-07-30T15:48:20;19.40;99.90